sensor_id;sensor_type;location;lat;lon;timestamp;P1;durP1;ratioP1;P2;durP2;ratioP2
69991;SDS011;57332;51.320;-0.580;2022-11-11T00:00:37;2.42;;;0.85;;
69991;SDS011;57332;51.320;-0.580;2022-11-11T00:03:04;4.22;;;0.90;;
69991;SDS011;57332;51.320;-0.580;2022-11-11T00:05:32;3.22;;;1.05;;
69991;SDS011;57332;51.320;-0.580;2022-11-11T00:07:58;2.58;;;1.00;;
69991;SDS011;57332;51.320;-0.580;2022-11-11T00:10:25;3.10;;;0.90;;
69991;SDS011;57332;51.320;-0.580;2022-11-11T00:12:52;2.15;;;0.73;;
69991;SDS011;57332;51.320;-0.580;2022-11-11T00:15:19;3.88;;;0.90;;
69991;SDS011;57332;51.320;-0.580;2022-11-11T00:17:46;3.72;;;0.80;;
69991;SDS011;57332;51.320;-0.580;2022-11-11T00:20:31;4.32;;;1.00;;
69991;SDS011;57332;51.320;-0.580;2022-11-11T00:23:20;3.40;;;0.75;;
69991;SDS011;57332;51.320;-0.580;2022-11-11T00:26:06;3.38;;;0.98;;
69991;SDS011;57332;51.320;-0.580;2022-11-11T00:28:53;1.92;;;0.90;;
69991;SDS011;57332;51.320;-0.580;2022-11-11T00:31:20;2.67;;;1.30;;
69991;SDS011;57332;51.320;-0.580;2022-11-11T00:33:46;3.10;;;1.13;;
69991;SDS011;57332;51.320;-0.580;2022-11-11T00:36:13;4.22;;;1.17;;
69991;SDS011;57332;51.320;-0.580;2022-11-11T00:38:40;5.97;;;1.35;;
69991;SDS011;57332;51.320;-0.580;2022-11-11T00:41:19;4.65;;;0.93;;
69991;SDS011;57332;51.320;-0.580;2022-11-11T00:43:46;3.83;;;1.10;;
69991;SDS011;57332;51.320;-0.580;2022-11-11T00:46:13;2.25;;;0.80;;
69991;SDS011;57332;51.320;-0.580;2022-11-11T00:48:59;3.35;;;1.10;;
69991;SDS011;57332;51.320;-0.580;2022-11-11T00:51:45;2.95;;;0.90;;
69991;SDS011;57332;51.320;-0.580;2022-11-11T00:54:12;2.80;;;1.02;;
69991;SDS011;57332;51.320;-0.580;2022-11-11T00:56:39;4.55;;;0.93;;
69991;SDS011;57332;51.320;-0.580;2022-11-11T00:59:06;3.05;;;0.88;;
69991;SDS011;57332;51.320;-0.580;2022-11-11T01:01:34;4.55;;;1.30;;
69991;SDS011;57332;51.320;-0.580;2022-11-11T01:04:01;4.40;;;0.90;;
69991;SDS011;57332;51.320;-0.580;2022-11-11T01:06:28;2.78;;;1.02;;
69991;SDS011;57332;51.320;-0.580;2022-11-11T01:08:55;4.00;;;0.80;;
69991;SDS011;57332;51.320;-0.580;2022-11-11T01:11:22;5.45;;;1.00;;
69991;SDS011;57332;51.320;-0.580;2022-11-11T01:13:50;3.08;;;0.90;;
69991;SDS011;57332;51.320;-0.580;2022-11-11T01:16:21;3.08;;;0.98;;
69991;SDS011;57332;51.320;-0.580;2022-11-11T01:18:49;3.53;;;1.00;;
69991;SDS011;57332;51.320;-0.580;2022-11-11T01:21:17;4.50;;;1.05;;
69991;SDS011;57332;51.320;-0.580;2022-11-11T01:23:45;3.38;;;0.80;;
69991;SDS011;57332;51.320;-0.580;2022-11-11T01:28:40;3.67;;;1.10;;
69991;SDS011;57332;51.320;-0.580;2022-11-11T01:31:09;3.08;;;1.00;;
69991;SDS011;57332;51.320;-0.580;2022-11-11T01:33:36;4.70;;;0.98;;
69991;SDS011;57332;51.320;-0.580;2022-11-11T01:36:06;4.05;;;1.00;;
69991;SDS011;57332;51.320;-0.580;2022-11-11T01:38:34;4.15;;;0.93;;
69991;SDS011;57332;51.320;-0.580;2022-11-11T01:41:01;3.42;;;0.90;;
69991;SDS011;57332;51.320;-0.580;2022-11-11T01:43:48;4.13;;;1.15;;
69991;SDS011;57332;51.320;-0.580;2022-11-11T01:48:56;3.80;;;0.90;;
69991;SDS011;57332;51.320;-0.580;2022-11-11T01:54:12;4.78;;;1.20;;
69991;SDS011;57332;51.320;-0.580;2022-11-11T01:56:40;4.90;;;1.20;;
69991;SDS011;57332;51.320;-0.580;2022-11-11T01:59:09;3.55;;;1.08;;
69991;SDS011;57332;51.320;-0.580;2022-11-11T02:01:37;6.90;;;1.40;;
69991;SDS011;57332;51.320;-0.580;2022-11-11T02:04:04;4.20;;;1.02;;
69991;SDS011;57332;51.320;-0.580;2022-11-11T02:06:51;5.13;;;1.30;;
69991;SDS011;57332;51.320;-0.580;2022-11-11T02:09:19;4.72;;;1.38;;
69991;SDS011;57332;51.320;-0.580;2022-11-11T02:11:47;4.32;;;1.10;;
69991;SDS011;57332;51.320;-0.580;2022-11-11T02:14:39;3.10;;;1.00;;
69991;SDS011;57332;51.320;-0.580;2022-11-11T02:17:09;5.32;;;1.33;;
69991;SDS011;57332;51.320;-0.580;2022-11-11T02:22:07;3.15;;;1.17;;
69991;SDS011;57332;51.320;-0.580;2022-11-11T02:24:36;6.68;;;1.10;;
69991;SDS011;57332;51.320;-0.580;2022-11-11T02:27:04;4.20;;;1.17;;
69991;SDS011;57332;51.320;-0.580;2022-11-11T02:29:32;5.95;;;1.35;;
69991;SDS011;57332;51.320;-0.580;2022-11-11T02:32:01;5.32;;;1.10;;
69991;SDS011;57332;51.320;-0.580;2022-11-11T02:34:29;5.85;;;1.17;;
69991;SDS011;57332;51.320;-0.580;2022-11-11T02:36:56;2.67;;;0.90;;
69991;SDS011;57332;51.320;-0.580;2022-11-11T02:39:24;5.82;;;1.38;;
69991;SDS011;57332;51.320;-0.580;2022-11-11T02:42:12;5.22;;;1.35;;
69991;SDS011;57332;51.320;-0.580;2022-11-11T02:44:39;4.55;;;1.30;;
69991;SDS011;57332;51.320;-0.580;2022-11-11T02:47:06;4.65;;;1.20;;
69991;SDS011;57332;51.320;-0.580;2022-11-11T02:49:33;7.43;;;1.50;;
69991;SDS011;57332;51.320;-0.580;2022-11-11T02:52:00;5.35;;;1.60;;
69991;SDS011;57332;51.320;-0.580;2022-11-11T02:54:27;6.35;;;1.10;;
69991;SDS011;57332;51.320;-0.580;2022-11-11T02:56:54;3.90;;;1.20;;
69991;SDS011;57332;51.320;-0.580;2022-11-11T02:59:34;6.90;;;1.20;;
69991;SDS011;57332;51.320;-0.580;2022-11-11T03:02:01;7.70;;;1.40;;
69991;SDS011;57332;51.320;-0.580;2022-11-11T03:04:28;5.50;;;1.20;;
69991;SDS011;57332;51.320;-0.580;2022-11-11T03:06:55;4.97;;;1.02;;
69991;SDS011;57332;51.320;-0.580;2022-11-11T03:09:22;9.35;;;1.35;;
69991;SDS011;57332;51.320;-0.580;2022-11-11T03:11:49;5.78;;;1.50;;
69991;SDS011;57332;51.320;-0.580;2022-11-11T03:14:16;4.50;;;1.27;;
69991;SDS011;57332;51.320;-0.580;2022-11-11T03:16:42;7.20;;;1.40;;
69991;SDS011;57332;51.320;-0.580;2022-11-11T03:19:28;5.82;;;2.08;;
69991;SDS011;57332;51.320;-0.580;2022-11-11T03:21:56;5.43;;;1.25;;
69991;SDS011;57332;51.320;-0.580;2022-11-11T03:24:44;2.83;;;1.20;;
69991;SDS011;57332;51.320;-0.580;2022-11-11T03:27:29;4.03;;;1.13;;
69991;SDS011;57332;51.320;-0.580;2022-11-11T03:29:56;6.78;;;1.35;;
69991;SDS011;57332;51.320;-0.580;2022-11-11T03:32:23;6.03;;;1.45;;
69991;SDS011;57332;51.320;-0.580;2022-11-11T03:34:50;2.42;;;1.00;;
69991;SDS011;57332;51.320;-0.580;2022-11-11T03:37:17;5.60;;;1.30;;
69991;SDS011;57332;51.320;-0.580;2022-11-11T03:40:02;6.70;;;1.60;;
69991;SDS011;57332;51.320;-0.580;2022-11-11T03:42:29;6.18;;;1.42;;
69991;SDS011;57332;51.320;-0.580;2022-11-11T03:44:56;6.13;;;1.30;;
69991;SDS011;57332;51.320;-0.580;2022-11-11T03:47:23;6.40;;;1.40;;
69991;SDS011;57332;51.320;-0.580;2022-11-11T03:49:50;7.60;;;1.50;;
69991;SDS011;57332;51.320;-0.580;2022-11-11T03:52:16;6.47;;;1.23;;
69991;SDS011;57332;51.320;-0.580;2022-11-11T03:54:43;3.55;;;1.38;;
69991;SDS011;57332;51.320;-0.580;2022-11-11T03:57:10;4.72;;;1.70;;
69991;SDS011;57332;51.320;-0.580;2022-11-11T03:59:55;7.63;;;1.10;;
69991;SDS011;57332;51.320;-0.580;2022-11-11T04:02:22;3.60;;;1.17;;
69991;SDS011;57332;51.320;-0.580;2022-11-11T04:05:08;4.35;;;1.30;;
69991;SDS011;57332;51.320;-0.580;2022-11-11T04:07:53;3.90;;;1.25;;
69991;SDS011;57332;51.320;-0.580;2022-11-11T04:10:39;5.07;;;1.90;;
69991;SDS011;57332;51.320;-0.580;2022-11-11T04:13:06;4.95;;;1.45;;
69991;SDS011;57332;51.320;-0.580;2022-11-11T04:15:52;6.45;;;1.40;;
69991;SDS011;57332;51.320;-0.580;2022-11-11T04:18:34;5.47;;;1.48;;
69991;SDS011;57332;51.320;-0.580;2022-11-11T04:21:21;7.57;;;1.70;;
69991;SDS011;57332;51.320;-0.580;2022-11-11T04:24:07;4.63;;;1.40;;
69991;SDS011;57332;51.320;-0.580;2022-11-11T04:26:53;7.28;;;1.80;;
69991;SDS011;57332;51.320;-0.580;2022-11-11T04:29:21;7.97;;;1.60;;
69991;SDS011;57332;51.320;-0.580;2022-11-11T04:34:40;6.45;;;2.00;;
69991;SDS011;57332;51.320;-0.580;2022-11-11T04:37:07;5.70;;;1.42;;
69991;SDS011;57332;51.320;-0.580;2022-11-11T04:39:34;3.53;;;1.15;;
69991;SDS011;57332;51.320;-0.580;2022-11-11T04:42:20;7.38;;;1.40;;
69991;SDS011;57332;51.320;-0.580;2022-11-11T04:44:47;4.72;;;1.30;;
69991;SDS011;57332;51.320;-0.580;2022-11-11T04:47:32;4.43;;;1.50;;
69991;SDS011;57332;51.320;-0.580;2022-11-11T04:49:59;6.90;;;1.35;;
69991;SDS011;57332;51.320;-0.580;2022-11-11T04:52:32;7.10;;;1.58;;
69991;SDS011;57332;51.320;-0.580;2022-11-11T04:54:59;6.55;;;1.70;;
69991;SDS011;57332;51.320;-0.580;2022-11-11T04:57:47;6.88;;;1.55;;
69991;SDS011;57332;51.320;-0.580;2022-11-11T05:00:16;5.22;;;1.50;;
69991;SDS011;57332;51.320;-0.580;2022-11-11T05:02:43;5.97;;;1.27;;
69991;SDS011;57332;51.320;-0.580;2022-11-11T05:05:29;6.07;;;1.13;;
69991;SDS011;57332;51.320;-0.580;2022-11-11T05:08:16;5.82;;;1.73;;
69991;SDS011;57332;51.320;-0.580;2022-11-11T05:11:01;5.57;;;1.60;;
69991;SDS011;57332;51.320;-0.580;2022-11-11T05:13:28;4.43;;;1.52;;
69991;SDS011;57332;51.320;-0.580;2022-11-11T05:16:18;10.05;;;2.80;;
69991;SDS011;57332;51.320;-0.580;2022-11-11T05:19:04;5.93;;;1.30;;
69991;SDS011;57332;51.320;-0.580;2022-11-11T05:21:50;5.30;;;1.40;;
69991;SDS011;57332;51.320;-0.580;2022-11-11T05:24:18;4.63;;;1.40;;
69991;SDS011;57332;51.320;-0.580;2022-11-11T05:27:04;5.05;;;1.50;;
69991;SDS011;57332;51.320;-0.580;2022-11-11T05:29:30;5.00;;;1.40;;
69991;SDS011;57332;51.320;-0.580;2022-11-11T05:31:57;4.75;;;1.58;;
69991;SDS011;57332;51.320;-0.580;2022-11-11T05:34:24;6.35;;;1.35;;
69991;SDS011;57332;51.320;-0.580;2022-11-11T05:36:51;6.85;;;1.40;;
69991;SDS011;57332;51.320;-0.580;2022-11-11T05:39:17;4.57;;;1.50;;
69991;SDS011;57332;51.320;-0.580;2022-11-11T05:41:44;5.90;;;1.65;;
69991;SDS011;57332;51.320;-0.580;2022-11-11T05:44:11;5.65;;;1.40;;
69991;SDS011;57332;51.320;-0.580;2022-11-11T05:46:38;5.18;;;1.35;;
69991;SDS011;57332;51.320;-0.580;2022-11-11T05:49:05;4.90;;;1.60;;
69991;SDS011;57332;51.320;-0.580;2022-11-11T05:51:41;4.35;;;1.52;;
69991;SDS011;57332;51.320;-0.580;2022-11-11T05:54:08;5.22;;;1.30;;
69991;SDS011;57332;51.320;-0.580;2022-11-11T05:56:35;6.90;;;1.50;;
69991;SDS011;57332;51.320;-0.580;2022-11-11T05:59:01;7.05;;;1.70;;
69991;SDS011;57332;51.320;-0.580;2022-11-11T06:01:29;7.63;;;1.75;;
69991;SDS011;57332;51.320;-0.580;2022-11-11T06:03:56;7.10;;;1.50;;
69991;SDS011;57332;51.320;-0.580;2022-11-11T06:06:22;4.80;;;1.55;;
69991;SDS011;57332;51.320;-0.580;2022-11-11T06:08:49;5.90;;;1.83;;
69991;SDS011;57332;51.320;-0.580;2022-11-11T06:11:16;6.50;;;1.50;;
69991;SDS011;57332;51.320;-0.580;2022-11-11T06:13:43;5.55;;;1.55;;
69991;SDS011;57332;51.320;-0.580;2022-11-11T06:16:10;5.00;;;1.52;;
69991;SDS011;57332;51.320;-0.580;2022-11-11T06:18:37;5.25;;;1.50;;
69991;SDS011;57332;51.320;-0.580;2022-11-11T06:21:04;8.77;;;1.83;;
69991;SDS011;57332;51.320;-0.580;2022-11-11T06:23:31;4.60;;;1.60;;
69991;SDS011;57332;51.320;-0.580;2022-11-11T06:25:58;4.78;;;1.55;;
69991;SDS011;57332;51.320;-0.580;2022-11-11T06:28:44;7.07;;;1.70;;
69991;SDS011;57332;51.320;-0.580;2022-11-11T06:31:12;8.15;;;1.80;;
69991;SDS011;57332;51.320;-0.580;2022-11-11T06:33:39;5.25;;;1.25;;
69991;SDS011;57332;51.320;-0.580;2022-11-11T06:36:06;9.50;;;1.95;;
69991;SDS011;57332;51.320;-0.580;2022-11-11T06:38:33;7.05;;;1.80;;
69991;SDS011;57332;51.320;-0.580;2022-11-11T06:41:00;4.65;;;1.50;;
69991;SDS011;57332;51.320;-0.580;2022-11-11T06:43:27;3.65;;;1.45;;
69991;SDS011;57332;51.320;-0.580;2022-11-11T06:45:54;4.25;;;1.60;;
69991;SDS011;57332;51.320;-0.580;2022-11-11T06:48:22;6.70;;;1.35;;
69991;SDS011;57332;51.320;-0.580;2022-11-11T06:50:49;5.65;;;1.70;;
69991;SDS011;57332;51.320;-0.580;2022-11-11T06:53:17;12.18;;;3.00;;
69991;SDS011;57332;51.320;-0.580;2022-11-11T06:55:44;5.82;;;1.42;;
69991;SDS011;57332;51.320;-0.580;2022-11-11T06:58:14;5.70;;;1.33;;
69991;SDS011;57332;51.320;-0.580;2022-11-11T07:00:42;3.55;;;1.20;;
69991;SDS011;57332;51.320;-0.580;2022-11-11T07:03:12;5.53;;;1.75;;
69991;SDS011;57332;51.320;-0.580;2022-11-11T07:05:40;4.75;;;1.60;;
69991;SDS011;57332;51.320;-0.580;2022-11-11T07:08:08;5.10;;;2.15;;
69991;SDS011;57332;51.320;-0.580;2022-11-11T07:10:36;5.15;;;1.85;;
69991;SDS011;57332;51.320;-0.580;2022-11-11T07:13:04;5.25;;;2.33;;
69991;SDS011;57332;51.320;-0.580;2022-11-11T07:15:32;6.50;;;1.63;;
69991;SDS011;57332;51.320;-0.580;2022-11-11T07:17:59;8.80;;;1.70;;
69991;SDS011;57332;51.320;-0.580;2022-11-11T07:20:26;4.60;;;1.63;;
69991;SDS011;57332;51.320;-0.580;2022-11-11T07:22:52;6.70;;;1.67;;
69991;SDS011;57332;51.320;-0.580;2022-11-11T07:25:19;3.95;;;1.40;;
69991;SDS011;57332;51.320;-0.580;2022-11-11T07:27:46;6.03;;;1.55;;
69991;SDS011;57332;51.320;-0.580;2022-11-11T07:30:13;5.10;;;1.55;;
69991;SDS011;57332;51.320;-0.580;2022-11-11T07:32:43;7.45;;;1.70;;
69991;SDS011;57332;51.320;-0.580;2022-11-11T07:35:12;5.25;;;1.80;;
69991;SDS011;57332;51.320;-0.580;2022-11-11T07:37:40;4.85;;;1.40;;
69991;SDS011;57332;51.320;-0.580;2022-11-11T07:40:07;4.82;;;1.60;;
69991;SDS011;57332;51.320;-0.580;2022-11-11T07:42:35;5.45;;;2.10;;
69991;SDS011;57332;51.320;-0.580;2022-11-11T07:45:03;8.60;;;2.00;;
69991;SDS011;57332;51.320;-0.580;2022-11-11T07:47:30;4.32;;;1.65;;
69991;SDS011;57332;51.320;-0.580;2022-11-11T07:49:57;5.63;;;1.90;;
69991;SDS011;57332;51.320;-0.580;2022-11-11T07:52:29;4.80;;;1.50;;
69991;SDS011;57332;51.320;-0.580;2022-11-11T07:54:56;6.13;;;2.03;;
69991;SDS011;57332;51.320;-0.580;2022-11-11T07:57:23;6.32;;;2.05;;
69991;SDS011;57332;51.320;-0.580;2022-11-11T07:59:50;4.38;;;1.30;;
69991;SDS011;57332;51.320;-0.580;2022-11-11T08:02:17;5.63;;;1.90;;
69991;SDS011;57332;51.320;-0.580;2022-11-11T08:04:44;6.22;;;1.92;;
69991;SDS011;57332;51.320;-0.580;2022-11-11T08:07:11;6.97;;;1.83;;
69991;SDS011;57332;51.320;-0.580;2022-11-11T08:09:38;6.22;;;1.50;;
69991;SDS011;57332;51.320;-0.580;2022-11-11T08:12:05;5.43;;;1.80;;
69991;SDS011;57332;51.320;-0.580;2022-11-11T08:14:50;3.28;;;1.38;;
69991;SDS011;57332;51.320;-0.580;2022-11-11T08:17:17;5.90;;;1.33;;
69991;SDS011;57332;51.320;-0.580;2022-11-11T08:19:44;7.38;;;1.80;;
69991;SDS011;57332;51.320;-0.580;2022-11-11T08:22:10;5.05;;;1.75;;
69991;SDS011;57332;51.320;-0.580;2022-11-11T08:24:37;5.18;;;1.42;;
69991;SDS011;57332;51.320;-0.580;2022-11-11T08:27:24;5.53;;;1.73;;
69991;SDS011;57332;51.320;-0.580;2022-11-11T08:29:51;5.70;;;2.05;;
69991;SDS011;57332;51.320;-0.580;2022-11-11T08:32:17;5.20;;;2.00;;
69991;SDS011;57332;51.320;-0.580;2022-11-11T08:34:44;6.55;;;1.90;;
69991;SDS011;57332;51.320;-0.580;2022-11-11T08:37:11;5.60;;;2.00;;
69991;SDS011;57332;51.320;-0.580;2022-11-11T08:39:38;5.05;;;1.70;;
69991;SDS011;57332;51.320;-0.580;2022-11-11T08:42:05;6.22;;;1.92;;
69991;SDS011;57332;51.320;-0.580;2022-11-11T08:44:31;7.40;;;1.92;;
69991;SDS011;57332;51.320;-0.580;2022-11-11T08:46:58;5.05;;;2.45;;
69991;SDS011;57332;51.320;-0.580;2022-11-11T08:49:25;6.28;;;1.98;;
69991;SDS011;57332;51.320;-0.580;2022-11-11T08:51:52;6.18;;;2.00;;
69991;SDS011;57332;51.320;-0.580;2022-11-11T08:54:19;6.00;;;1.92;;
69991;SDS011;57332;51.320;-0.580;2022-11-11T08:56:46;4.78;;;1.80;;
69991;SDS011;57332;51.320;-0.580;2022-11-11T08:59:13;6.07;;;1.80;;
69991;SDS011;57332;51.320;-0.580;2022-11-11T09:01:39;6.15;;;2.10;;
69991;SDS011;57332;51.320;-0.580;2022-11-11T09:04:07;9.23;;;1.80;;
69991;SDS011;57332;51.320;-0.580;2022-11-11T09:06:53;7.07;;;1.60;;
69991;SDS011;57332;51.320;-0.580;2022-11-11T09:09:20;7.03;;;2.35;;
69991;SDS011;57332;51.320;-0.580;2022-11-11T09:11:47;7.57;;;1.52;;
69991;SDS011;57332;51.320;-0.580;2022-11-11T09:14:14;6.55;;;2.50;;
69991;SDS011;57332;51.320;-0.580;2022-11-11T09:16:41;7.97;;;1.80;;
69991;SDS011;57332;51.320;-0.580;2022-11-11T09:19:07;7.47;;;1.77;;
69991;SDS011;57332;51.320;-0.580;2022-11-11T09:21:34;8.68;;;1.95;;
69991;SDS011;57332;51.320;-0.580;2022-11-11T09:24:01;6.20;;;1.75;;
69991;SDS011;57332;51.320;-0.580;2022-11-11T09:26:28;6.63;;;2.03;;
69991;SDS011;57332;51.320;-0.580;2022-11-11T09:28:55;3.80;;;1.70;;
69991;SDS011;57332;51.320;-0.580;2022-11-11T09:31:21;8.88;;;2.08;;
69991;SDS011;57332;51.320;-0.580;2022-11-11T09:34:09;5.70;;;2.15;;
69991;SDS011;57332;51.320;-0.580;2022-11-11T09:36:36;6.22;;;1.73;;
69991;SDS011;57332;51.320;-0.580;2022-11-11T09:39:03;3.67;;;1.67;;
69991;SDS011;57332;51.320;-0.580;2022-11-11T09:47:03;8.07;;;2.28;;
69991;SDS011;57332;51.320;-0.580;2022-11-11T09:52:07;5.20;;;1.80;;
69991;SDS011;57332;51.320;-0.580;2022-11-11T09:57:48;6.45;;;1.83;;
69991;SDS011;57332;51.320;-0.580;2022-11-11T10:00:17;9.73;;;2.42;;
69991;SDS011;57332;51.320;-0.580;2022-11-11T10:02:51;7.68;;;2.42;;
69991;SDS011;57332;51.320;-0.580;2022-11-11T10:08:08;5.57;;;1.67;;
69991;SDS011;57332;51.320;-0.580;2022-11-11T10:10:38;8.15;;;2.22;;
69991;SDS011;57332;51.320;-0.580;2022-11-11T10:13:12;5.38;;;1.90;;
69991;SDS011;57332;51.320;-0.580;2022-11-11T10:21:17;9.52;;;1.85;;
69991;SDS011;57332;51.320;-0.580;2022-11-11T10:23:48;8.20;;;2.10;;
69991;SDS011;57332;51.320;-0.580;2022-11-11T10:26:18;7.35;;;2.22;;
69991;SDS011;57332;51.320;-0.580;2022-11-11T10:28:46;7.40;;;1.80;;
69991;SDS011;57332;51.320;-0.580;2022-11-11T10:31:20;5.55;;;2.00;;
69991;SDS011;57332;51.320;-0.580;2022-11-11T10:36:20;5.72;;;2.17;;
69991;SDS011;57332;51.320;-0.580;2022-11-11T10:38:58;5.85;;;1.70;;
69991;SDS011;57332;51.320;-0.580;2022-11-11T10:41:30;4.93;;;1.75;;
69991;SDS011;57332;51.320;-0.580;2022-11-11T10:43:58;8.18;;;2.03;;
69991;SDS011;57332;51.320;-0.580;2022-11-11T10:46:27;6.68;;;2.10;;
69991;SDS011;57332;51.320;-0.580;2022-11-11T10:48:57;6.07;;;1.75;;
69991;SDS011;57332;51.320;-0.580;2022-11-11T10:51:26;6.47;;;2.10;;
69991;SDS011;57332;51.320;-0.580;2022-11-11T10:53:57;7.05;;;2.05;;
69991;SDS011;57332;51.320;-0.580;2022-11-11T10:56:41;8.85;;;2.20;;
69991;SDS011;57332;51.320;-0.580;2022-11-11T10:59:23;7.95;;;2.28;;
69991;SDS011;57332;51.320;-0.580;2022-11-11T11:01:53;6.20;;;1.90;;
69991;SDS011;57332;51.320;-0.580;2022-11-11T11:06:48;8.77;;;2.00;;
69991;SDS011;57332;51.320;-0.580;2022-11-11T11:09:18;8.90;;;2.10;;
69991;SDS011;57332;51.320;-0.580;2022-11-11T11:17:14;4.97;;;1.80;;
69991;SDS011;57332;51.320;-0.580;2022-11-11T11:19:42;6.97;;;1.88;;
69991;SDS011;57332;51.320;-0.580;2022-11-11T11:22:09;5.20;;;1.92;;
69991;SDS011;57332;51.320;-0.580;2022-11-11T11:24:36;6.45;;;1.98;;
69991;SDS011;57332;51.320;-0.580;2022-11-11T11:27:09;3.50;;;1.70;;
69991;SDS011;57332;51.320;-0.580;2022-11-11T11:29:37;6.18;;;1.60;;
69991;SDS011;57332;51.320;-0.580;2022-11-11T11:32:11;7.47;;;2.25;;
69991;SDS011;57332;51.320;-0.580;2022-11-11T11:37:08;6.80;;;2.00;;
69991;SDS011;57332;51.320;-0.580;2022-11-11T11:39:37;5.13;;;1.98;;
69991;SDS011;57332;51.320;-0.580;2022-11-11T11:42:04;8.50;;;1.90;;
69991;SDS011;57332;51.320;-0.580;2022-11-11T11:44:32;5.07;;;1.98;;
69991;SDS011;57332;51.320;-0.580;2022-11-11T12:12:16;6.80;;;1.70;;
69991;SDS011;57332;51.320;-0.580;2022-11-11T12:23:02;4.90;;;1.80;;
69991;SDS011;57332;51.320;-0.580;2022-11-11T12:25:36;6.68;;;1.80;;
69991;SDS011;57332;51.320;-0.580;2022-11-11T12:30:39;4.28;;;1.80;;
69991;SDS011;57332;51.320;-0.580;2022-11-11T12:33:15;6.47;;;2.08;;
69991;SDS011;57332;51.320;-0.580;2022-11-11T12:35:55;8.85;;;1.70;;
69991;SDS011;57332;51.320;-0.580;2022-11-11T12:41:02;7.63;;;1.70;;
69991;SDS011;57332;51.320;-0.580;2022-11-11T12:55:07;7.55;;;1.88;;
69991;SDS011;57332;51.320;-0.580;2022-11-11T13:00:15;8.55;;;2.03;;
69991;SDS011;57332;51.320;-0.580;2022-11-11T13:05:20;6.43;;;2.25;;
69991;SDS011;57332;51.320;-0.580;2022-11-11T13:10:28;5.95;;;2.40;;
69991;SDS011;57332;51.320;-0.580;2022-11-11T13:13:16;4.35;;;2.00;;
69991;SDS011;57332;51.320;-0.580;2022-11-11T13:15:38;8.73;;;2.15;;
69991;SDS011;57332;51.320;-0.580;2022-11-11T13:18:13;6.70;;;2.15;;
69991;SDS011;57332;51.320;-0.580;2022-11-11T13:21:00;6.75;;;2.30;;
69991;SDS011;57332;51.320;-0.580;2022-11-11T13:23:29;7.13;;;2.13;;
69991;SDS011;57332;51.320;-0.580;2022-11-11T13:25:59;5.75;;;2.20;;
69991;SDS011;57332;51.320;-0.580;2022-11-11T13:28:28;5.13;;;2.13;;
69991;SDS011;57332;51.320;-0.580;2022-11-11T13:31:19;7.18;;;2.00;;
69991;SDS011;57332;51.320;-0.580;2022-11-11T13:33:53;7.80;;;2.15;;
69991;SDS011;57332;51.320;-0.580;2022-11-11T13:36:23;6.18;;;1.98;;
69991;SDS011;57332;51.320;-0.580;2022-11-11T13:38:52;9.48;;;2.75;;
69991;SDS011;57332;51.320;-0.580;2022-11-11T13:41:21;6.40;;;1.98;;
69991;SDS011;57332;51.320;-0.580;2022-11-11T13:43:49;4.45;;;1.98;;
69991;SDS011;57332;51.320;-0.580;2022-11-11T13:48:52;5.95;;;2.13;;
69991;SDS011;57332;51.320;-0.580;2022-11-11T13:53:48;6.05;;;1.92;;
69991;SDS011;57332;51.320;-0.580;2022-11-11T13:58:48;5.82;;;1.83;;
69991;SDS011;57332;51.320;-0.580;2022-11-11T14:01:15;8.88;;;2.63;;
69991;SDS011;57332;51.320;-0.580;2022-11-11T14:11:11;3.45;;;2.10;;
69991;SDS011;57332;51.320;-0.580;2022-11-11T14:13:52;3.58;;;1.75;;
69991;SDS011;57332;51.320;-0.580;2022-11-11T14:24:35;5.47;;;1.60;;
69991;SDS011;57332;51.320;-0.580;2022-11-11T14:29:46;5.50;;;2.20;;
69991;SDS011;57332;51.320;-0.580;2022-11-11T14:34:46;3.95;;;1.63;;
69991;SDS011;57332;51.320;-0.580;2022-11-11T14:37:20;5.40;;;1.90;;
69991;SDS011;57332;51.320;-0.580;2022-11-11T14:39:52;3.80;;;2.00;;
69991;SDS011;57332;51.320;-0.580;2022-11-11T14:45:02;4.00;;;1.95;;
69991;SDS011;57332;51.320;-0.580;2022-11-11T14:47:41;5.30;;;1.80;;
69991;SDS011;57332;51.320;-0.580;2022-11-11T14:52:53;5.45;;;2.58;;
69991;SDS011;57332;51.320;-0.580;2022-11-11T14:55:28;5.35;;;1.77;;
69991;SDS011;57332;51.320;-0.580;2022-11-11T14:57:57;4.53;;;1.60;;
69991;SDS011;57332;51.320;-0.580;2022-11-11T15:02:59;6.35;;;1.83;;
69991;SDS011;57332;51.320;-0.580;2022-11-11T15:10:31;8.57;;;2.25;;
69991;SDS011;57332;51.320;-0.580;2022-11-11T15:15:59;4.80;;;2.00;;
69991;SDS011;57332;51.320;-0.580;2022-11-11T15:21:05;4.32;;;1.92;;
69991;SDS011;57332;51.320;-0.580;2022-11-11T15:23:48;4.88;;;1.70;;
69991;SDS011;57332;51.320;-0.580;2022-11-11T15:36:25;5.45;;;1.40;;
69991;SDS011;57332;51.320;-0.580;2022-11-11T15:38:56;5.45;;;1.85;;
69991;SDS011;57332;51.320;-0.580;2022-11-11T15:41:25;6.13;;;2.30;;
69991;SDS011;57332;51.320;-0.580;2022-11-11T15:44:00;6.43;;;1.60;;
69991;SDS011;57332;51.320;-0.580;2022-11-11T15:46:28;5.50;;;1.63;;
69991;SDS011;57332;51.320;-0.580;2022-11-11T15:48:55;3.92;;;1.40;;
69991;SDS011;57332;51.320;-0.580;2022-11-11T15:53:51;6.63;;;1.60;;
69991;SDS011;57332;51.320;-0.580;2022-11-11T15:56:28;3.42;;;1.30;;
69991;SDS011;57332;51.320;-0.580;2022-11-11T15:58:55;6.00;;;1.67;;
69991;SDS011;57332;51.320;-0.580;2022-11-11T16:01:25;5.43;;;1.50;;
69991;SDS011;57332;51.320;-0.580;2022-11-11T16:03:56;3.90;;;1.50;;
69991;SDS011;57332;51.320;-0.580;2022-11-11T16:06:24;5.10;;;1.50;;
69991;SDS011;57332;51.320;-0.580;2022-11-11T16:08:51;4.53;;;1.58;;
69991;SDS011;57332;51.320;-0.580;2022-11-11T16:11:19;6.47;;;1.85;;
69991;SDS011;57332;51.320;-0.580;2022-11-11T16:16:21;5.30;;;1.70;;
69991;SDS011;57332;51.320;-0.580;2022-11-11T16:19:02;4.50;;;1.67;;
69991;SDS011;57332;51.320;-0.580;2022-11-11T16:21:37;6.75;;;1.75;;
69991;SDS011;57332;51.320;-0.580;2022-11-11T16:24:20;5.10;;;1.60;;
69991;SDS011;57332;51.320;-0.580;2022-11-11T16:26:48;5.45;;;1.50;;
69991;SDS011;57332;51.320;-0.580;2022-11-11T16:29:15;4.50;;;1.73;;
69991;SDS011;57332;51.320;-0.580;2022-11-11T16:31:43;6.95;;;1.52;;
69991;SDS011;57332;51.320;-0.580;2022-11-11T16:37:11;3.72;;;1.35;;
69991;SDS011;57332;51.320;-0.580;2022-11-11T16:39:42;5.55;;;2.00;;
69991;SDS011;57332;51.320;-0.580;2022-11-11T16:42:16;6.18;;;2.00;;
69991;SDS011;57332;51.320;-0.580;2022-11-11T16:50:02;6.75;;;2.20;;
69991;SDS011;57332;51.320;-0.580;2022-11-11T16:52:38;9.90;;;2.03;;
69991;SDS011;57332;51.320;-0.580;2022-11-11T16:55:07;10.60;;;1.90;;
69991;SDS011;57332;51.320;-0.580;2022-11-11T16:57:34;5.78;;;2.20;;
69991;SDS011;57332;51.320;-0.580;2022-11-11T17:00:12;5.20;;;2.20;;
69991;SDS011;57332;51.320;-0.580;2022-11-11T17:02:40;8.05;;;2.22;;
69991;SDS011;57332;51.320;-0.580;2022-11-11T17:05:07;7.35;;;2.50;;
69991;SDS011;57332;51.320;-0.580;2022-11-11T17:07:40;5.55;;;2.15;;
69991;SDS011;57332;51.320;-0.580;2022-11-11T17:12:36;7.32;;;2.10;;
69991;SDS011;57332;51.320;-0.580;2022-11-11T17:15:06;6.00;;;2.75;;
69991;SDS011;57332;51.320;-0.580;2022-11-11T17:17:34;10.02;;;3.25;;
69991;SDS011;57332;51.320;-0.580;2022-11-11T17:20:36;8.30;;;2.05;;
69991;SDS011;57332;51.320;-0.580;2022-11-11T17:22:56;6.57;;;2.28;;
69991;SDS011;57332;51.320;-0.580;2022-11-11T17:25:23;6.57;;;2.08;;
69991;SDS011;57332;51.320;-0.580;2022-11-11T17:27:50;7.82;;;2.10;;
69991;SDS011;57332;51.320;-0.580;2022-11-11T17:30:17;5.45;;;1.90;;
69991;SDS011;57332;51.320;-0.580;2022-11-11T17:32:46;6.40;;;1.73;;
69991;SDS011;57332;51.320;-0.580;2022-11-11T17:35:12;4.75;;;1.90;;
69991;SDS011;57332;51.320;-0.580;2022-11-11T17:37:39;6.97;;;2.63;;
69991;SDS011;57332;51.320;-0.580;2022-11-11T17:40:06;6.72;;;2.15;;
69991;SDS011;57332;51.320;-0.580;2022-11-11T17:42:34;6.20;;;2.22;;
69991;SDS011;57332;51.320;-0.580;2022-11-11T17:45:02;5.50;;;2.00;;
69991;SDS011;57332;51.320;-0.580;2022-11-11T17:47:29;6.65;;;2.28;;
69991;SDS011;57332;51.320;-0.580;2022-11-11T17:49:57;4.57;;;2.20;;